CheckWX is a tool to help pilots better visualize weather data.  It is not intended as a substitute for an official pre-flight weather briefing.

22:53:39 UTC

OBBI METAR
Bahrain International Airport
Manama, Bahrain
Current

24 mins ago

OBBI 142230Z 30009KT CAVOK 36/26 Q0997 NOSIG
Observed
Jul-14 @ 22:30 UTC
Wind
  • 300° at 9 KTS
Visibility
10,000+ meters
Flight Rules
VFR
Cloud Levels
  • Clear skies
Temperature
36°C / 97°F
Dewpoint
26°C / 79°F
Humidity
56%
Altimeter
29.44" Hg
Pressure
996.92 hPa
Previous

54 mins ago

OBBI 142200Z 30009KT CAVOK 36/27 Q0997 NOSIG
Observed
Jul-14 @ 22:00 UTC
Wind
  • 300° at 9 KTS
Visibility
10,000+ meters
Flight Rules
VFR
Cloud Levels
  • Clear skies
Temperature
36°C / 97°F
Dewpoint
27°C / 81°F
Humidity
60%
Altimeter
29.44" Hg
Pressure
996.92 hPa
Previous

1 hour ago

OBBI 142130Z 31009KT CAVOK 36/25 Q0997 NOSIG
Observed
Jul-14 @ 21:30 UTC
Wind
  • 310° at 9 KTS
Visibility
10,000+ meters
Flight Rules
VFR
Cloud Levels
  • Clear skies
Temperature
36°C / 97°F
Dewpoint
25°C / 77°F
Humidity
53%
Altimeter
29.44" Hg
Pressure
996.92 hPa